sensor_id;sensor_type;location;lat;lon;timestamp;temperature;humidity
48535;DHT22;34323;52.022;5.686;2023-08-30T00:00:49;21.30;99.90
48535;DHT22;34323;52.022;5.686;2023-08-30T00:03:14;21.30;99.90
48535;DHT22;34323;52.022;5.686;2023-08-30T00:05:40;21.30;99.90
48535;DHT22;34323;52.022;5.686;2023-08-30T00:08:06;21.30;99.90
48535;DHT22;34323;52.022;5.686;2023-08-30T00:10:32;21.30;99.90
48535;DHT22;34323;52.022;5.686;2023-08-30T00:12:57;21.40;99.90
48535;DHT22;34323;52.022;5.686;2023-08-30T00:15:23;21.40;99.90
48535;DHT22;34323;52.022;5.686;2023-08-30T00:17:49;21.30;99.90
48535;DHT22;34323;52.022;5.686;2023-08-30T00:20:20;21.30;99.90
48535;DHT22;34323;52.022;5.686;2023-08-30T00:22:47;21.30;99.90
48535;DHT22;34323;52.022;5.686;2023-08-30T00:25:14;21.30;99.90
48535;DHT22;34323;52.022;5.686;2023-08-30T00:27:39;21.20;99.90
48535;DHT22;34323;52.022;5.686;2023-08-30T00:30:05;21.20;99.90
48535;DHT22;34323;52.022;5.686;2023-08-30T00:32:33;21.20;99.90
48535;DHT22;34323;52.022;5.686;2023-08-30T00:34:59;21.20;99.90
48535;DHT22;34323;52.022;5.686;2023-08-30T00:37:24;21.10;99.90
48535;DHT22;34323;52.022;5.686;2023-08-30T00:39:50;21.10;99.90
48535;DHT22;34323;52.022;5.686;2023-08-30T00:42:15;21.10;99.90
48535;DHT22;34323;52.022;5.686;2023-08-30T00:44:41;21.00;99.90
48535;DHT22;34323;52.022;5.686;2023-08-30T00:47:06;21.00;99.90
48535;DHT22;34323;52.022;5.686;2023-08-30T00:49:32;21.00;99.90
48535;DHT22;34323;52.022;5.686;2023-08-30T00:52:02;21.00;99.90
48535;DHT22;34323;52.022;5.686;2023-08-30T00:54:29;21.00;99.90
48535;DHT22;34323;52.022;5.686;2023-08-30T00:56:55;21.00;99.90
48535;DHT22;34323;52.022;5.686;2023-08-30T00:59:21;21.00;99.90
48535;DHT22;34323;52.022;5.686;2023-08-30T01:01:47;20.90;99.90
48535;DHT22;34323;52.022;5.686;2023-08-30T01:04:13;20.80;99.90
48535;DHT22;34323;52.022;5.686;2023-08-30T01:06:39;20.80;99.90
48535;DHT22;34323;52.022;5.686;2023-08-30T01:09:05;20.70;99.90
48535;DHT22;34323;52.022;5.686;2023-08-30T01:11:45;20.70;99.90
48535;DHT22;34323;52.022;5.686;2023-08-30T01:14:16;20.70;99.90
48535;DHT22;34323;52.022;5.686;2023-08-30T01:16:44;20.60;99.90
48535;DHT22;34323;52.022;5.686;2023-08-30T01:22:08;20.50;99.90
48535;DHT22;34323;52.022;5.686;2023-08-30T01:25:09;20.50;99.90
48535;DHT22;34323;52.022;5.686;2023-08-30T01:27:38;20.50;99.90
48535;DHT22;34323;52.022;5.686;2023-08-30T01:30:06;20.50;99.90
48535;DHT22;34323;52.022;5.686;2023-08-30T01:32:33;20.50;99.90
48535;DHT22;34323;52.022;5.686;2023-08-30T01:35:00;20.50;99.90
48535;DHT22;34323;52.022;5.686;2023-08-30T01:37:27;20.60;99.90
48535;DHT22;34323;52.022;5.686;2023-08-30T01:39:54;20.60;99.90
48535;DHT22;34323;52.022;5.686;2023-08-30T01:42:22;20.60;99.90
48535;DHT22;34323;52.022;5.686;2023-08-30T01:44:50;20.60;99.90
48535;DHT22;34323;52.022;5.686;2023-08-30T01:47:17;20.70;99.90
48535;DHT22;34323;52.022;5.686;2023-08-30T01:49:43;20.70;99.90
48535;DHT22;34323;52.022;5.686;2023-08-30T01:52:10;20.70;99.90
48535;DHT22;34323;52.022;5.686;2023-08-30T01:54:37;20.70;99.90
48535;DHT22;34323;52.022;5.686;2023-08-30T01:57:04;20.70;99.90
48535;DHT22;34323;52.022;5.686;2023-08-30T01:59:30;20.70;99.90
48535;DHT22;34323;52.022;5.686;2023-08-30T02:01:55;20.70;99.90
48535;DHT22;34323;52.022;5.686;2023-08-30T02:04:22;20.70;99.90
48535;DHT22;34323;52.022;5.686;2023-08-30T02:06:57;20.70;99.90
48535;DHT22;34323;52.022;5.686;2023-08-30T02:09:34;20.60;99.90
48535;DHT22;34323;52.022;5.686;2023-08-30T02:12:05;20.70;99.90
48535;DHT22;34323;52.022;5.686;2023-08-30T02:14:32;20.70;99.90
48535;DHT22;34323;52.022;5.686;2023-08-30T02:16:59;20.70;99.90
48535;DHT22;34323;52.022;5.686;2023-08-30T02:19:25;20.80;99.90
48535;DHT22;34323;52.022;5.686;2023-08-30T02:21:51;20.70;99.90
48535;DHT22;34323;52.022;5.686;2023-08-30T02:24:16;20.80;99.90
48535;DHT22;34323;52.022;5.686;2023-08-30T02:26:42;20.70;99.90
48535;DHT22;34323;52.022;5.686;2023-08-30T02:29:07;20.80;99.90
48535;DHT22;34323;52.022;5.686;2023-08-30T02:31:33;20.80;99.90
48535;DHT22;34323;52.022;5.686;2023-08-30T02:33:59;20.90;99.90
48535;DHT22;34323;52.022;5.686;2023-08-30T02:36:24;20.80;99.90
48535;DHT22;34323;52.022;5.686;2023-08-30T02:38:50;20.60;99.90
48535;DHT22;34323;52.022;5.686;2023-08-30T02:41:15;20.60;99.90
48535;DHT22;34323;52.022;5.686;2023-08-30T02:43:41;20.60;99.90
48535;DHT22;34323;52.022;5.686;2023-08-30T02:46:06;20.70;99.90
48535;DHT22;34323;52.022;5.686;2023-08-30T02:48:32;20.90;99.90
48535;DHT22;34323;52.022;5.686;2023-08-30T02:50:59;20.90;99.90
48535;DHT22;34323;52.022;5.686;2023-08-30T02:53:24;21.00;99.90
48535;DHT22;34323;52.022;5.686;2023-08-30T02:55:50;20.90;99.90
48535;DHT22;34323;52.022;5.686;2023-08-30T02:58:15;21.00;99.90
48535;DHT22;34323;52.022;5.686;2023-08-30T03:00:41;21.00;99.90
48535;DHT22;34323;52.022;5.686;2023-08-30T03:03:07;21.10;99.90
48535;DHT22;34323;52.022;5.686;2023-08-30T03:05:32;21.20;99.90
48535;DHT22;34323;52.022;5.686;2023-08-30T03:07:58;21.10;99.90
48535;DHT22;34323;52.022;5.686;2023-08-30T03:10:23;21.10;99.90
48535;DHT22;34323;52.022;5.686;2023-08-30T03:12:49;21.20;99.90
48535;DHT22;34323;52.022;5.686;2023-08-30T03:15:14;21.10;99.90
48535;DHT22;34323;52.022;5.686;2023-08-30T03:17:40;21.20;99.90
48535;DHT22;34323;52.022;5.686;2023-08-30T03:20:06;21.20;99.90
48535;DHT22;34323;52.022;5.686;2023-08-30T03:22:32;21.00;99.90
48535;DHT22;34323;52.022;5.686;2023-08-30T03:24:58;21.00;99.90
48535;DHT22;34323;52.022;5.686;2023-08-30T03:27:24;20.90;99.90
48535;DHT22;34323;52.022;5.686;2023-08-30T03:29:49;20.80;99.90
48535;DHT22;34323;52.022;5.686;2023-08-30T03:32:17;20.80;99.90
48535;DHT22;34323;52.022;5.686;2023-08-30T03:34:46;20.80;99.90
48535;DHT22;34323;52.022;5.686;2023-08-30T03:37:13;20.70;99.90
48535;DHT22;34323;52.022;5.686;2023-08-30T03:39:39;20.50;99.90
48535;DHT22;34323;52.022;5.686;2023-08-30T03:42:05;20.50;99.90
48535;DHT22;34323;52.022;5.686;2023-08-30T03:44:31;20.50;99.90
48535;DHT22;34323;52.022;5.686;2023-08-30T03:46:56;20.50;99.90
48535;DHT22;34323;52.022;5.686;2023-08-30T03:49:22;20.50;99.90
48535;DHT22;34323;52.022;5.686;2023-08-30T03:51:48;20.50;99.90
48535;DHT22;34323;52.022;5.686;2023-08-30T03:54:13;20.50;99.90
48535;DHT22;34323;52.022;5.686;2023-08-30T03:56:42;20.40;99.90
48535;DHT22;34323;52.022;5.686;2023-08-30T03:59:08;20.30;99.90
48535;DHT22;34323;52.022;5.686;2023-08-30T04:01:33;20.20;99.90
48535;DHT22;34323;52.022;5.686;2023-08-30T04:03:59;20.20;99.90
48535;DHT22;34323;52.022;5.686;2023-08-30T04:06:24;20.30;99.90
48535;DHT22;34323;52.022;5.686;2023-08-30T04:08:50;20.30;99.90
48535;DHT22;34323;52.022;5.686;2023-08-30T04:11:15;20.20;99.90
48535;DHT22;34323;52.022;5.686;2023-08-30T04:13:41;20.10;99.90
48535;DHT22;34323;52.022;5.686;2023-08-30T04:16:06;20.10;99.90
48535;DHT22;34323;52.022;5.686;2023-08-30T04:18:32;20.10;99.90
48535;DHT22;34323;52.022;5.686;2023-08-30T04:20:58;20.20;99.90
48535;DHT22;34323;52.022;5.686;2023-08-30T04:23:24;20.20;99.90
48535;DHT22;34323;52.022;5.686;2023-08-30T04:25:49;20.20;99.90
48535;DHT22;34323;52.022;5.686;2023-08-30T04:28:15;20.20;99.90
48535;DHT22;34323;52.022;5.686;2023-08-30T04:30:40;20.10;99.90
48535;DHT22;34323;52.022;5.686;2023-08-30T04:33:06;20.10;99.90
48535;DHT22;34323;52.022;5.686;2023-08-30T04:35:32;20.10;99.90
48535;DHT22;34323;52.022;5.686;2023-08-30T04:37:59;20.10;99.90
48535;DHT22;34323;52.022;5.686;2023-08-30T04:40:24;20.10;99.90
48535;DHT22;34323;52.022;5.686;2023-08-30T04:42:50;20.10;99.90
48535;DHT22;34323;52.022;5.686;2023-08-30T04:45:16;20.20;99.90
48535;DHT22;34323;52.022;5.686;2023-08-30T04:47:41;20.10;99.90
48535;DHT22;34323;52.022;5.686;2023-08-30T04:50:09;20.10;99.90
48535;DHT22;34323;52.022;5.686;2023-08-30T04:52:34;20.00;99.90
48535;DHT22;34323;52.022;5.686;2023-08-30T04:55:00;20.00;99.90
48535;DHT22;34323;52.022;5.686;2023-08-30T04:57:26;19.90;99.90
48535;DHT22;34323;52.022;5.686;2023-08-30T04:59:51;19.80;99.90
48535;DHT22;34323;52.022;5.686;2023-08-30T05:02:17;19.80;99.90
48535;DHT22;34323;52.022;5.686;2023-08-30T05:04:42;19.80;99.90
48535;DHT22;34323;52.022;5.686;2023-08-30T05:07:08;19.90;99.90
48535;DHT22;34323;52.022;5.686;2023-08-30T05:09:33;19.80;99.90
48535;DHT22;34323;52.022;5.686;2023-08-30T05:12:00;19.80;99.90
48535;DHT22;34323;52.022;5.686;2023-08-30T05:14:26;19.80;99.90
48535;DHT22;34323;52.022;5.686;2023-08-30T05:16:52;19.90;99.90
48535;DHT22;34323;52.022;5.686;2023-08-30T05:19:18;19.90;99.90
48535;DHT22;34323;52.022;5.686;2023-08-30T05:21:43;19.90;99.90
48535;DHT22;34323;52.022;5.686;2023-08-30T05:24:09;19.80;99.90
48535;DHT22;34323;52.022;5.686;2023-08-30T05:26:35;19.80;99.90
48535;DHT22;34323;52.022;5.686;2023-08-30T05:29:02;19.80;99.90
48535;DHT22;34323;52.022;5.686;2023-08-30T05:31:27;19.80;99.90
48535;DHT22;34323;52.022;5.686;2023-08-30T05:33:53;19.80;99.90
48535;DHT22;34323;52.022;5.686;2023-08-30T05:36:18;19.90;99.90
48535;DHT22;34323;52.022;5.686;2023-08-30T05:38:44;19.80;99.90
48535;DHT22;34323;52.022;5.686;2023-08-30T05:41:10;19.90;99.90
48535;DHT22;34323;52.022;5.686;2023-08-30T05:43:35;19.90;99.90
48535;DHT22;34323;52.022;5.686;2023-08-30T05:46:01;19.80;99.90
48535;DHT22;34323;52.022;5.686;2023-08-30T05:48:28;19.70;99.90
48535;DHT22;34323;52.022;5.686;2023-08-30T05:50:54;19.80;99.90
48535;DHT22;34323;52.022;5.686;2023-08-30T05:53:19;19.80;99.90
48535;DHT22;34323;52.022;5.686;2023-08-30T05:55:45;19.90;99.90
48535;DHT22;34323;52.022;5.686;2023-08-30T05:58:11;19.90;99.90
48535;DHT22;34323;52.022;5.686;2023-08-30T06:00:36;19.90;99.90
48535;DHT22;34323;52.022;5.686;2023-08-30T06:03:02;20.00;99.90
48535;DHT22;34323;52.022;5.686;2023-08-30T06:05:28;20.00;99.90
48535;DHT22;34323;52.022;5.686;2023-08-30T06:07:53;20.20;99.90
48535;DHT22;34323;52.022;5.686;2023-08-30T06:10:19;20.10;99.90
48535;DHT22;34323;52.022;5.686;2023-08-30T06:12:45;20.10;99.90
48535;DHT22;34323;52.022;5.686;2023-08-30T06:15:10;20.10;99.90
48535;DHT22;34323;52.022;5.686;2023-08-30T06:17:36;20.10;99.90
48535;DHT22;34323;52.022;5.686;2023-08-30T06:20:02;20.20;99.90
48535;DHT22;34323;52.022;5.686;2023-08-30T06:22:28;20.30;99.90
48535;DHT22;34323;52.022;5.686;2023-08-30T06:24:54;20.30;99.90
48535;DHT22;34323;52.022;5.686;2023-08-30T06:27:19;20.50;99.90
48535;DHT22;34323;52.022;5.686;2023-08-30T06:29:45;20.60;99.90
48535;DHT22;34323;52.022;5.686;2023-08-30T06:32:11;20.60;99.90
48535;DHT22;34323;52.022;5.686;2023-08-30T06:34:36;20.60;99.90
48535;DHT22;34323;52.022;5.686;2023-08-30T06:37:02;20.60;99.90
48535;DHT22;34323;52.022;5.686;2023-08-30T06:39:33;20.80;99.90
48535;DHT22;34323;52.022;5.686;2023-08-30T06:41:59;20.90;99.90
48535;DHT22;34323;52.022;5.686;2023-08-30T06:44:24;20.90;99.90
48535;DHT22;34323;52.022;5.686;2023-08-30T06:46:50;20.80;99.90
48535;DHT22;34323;52.022;5.686;2023-08-30T06:49:15;20.80;99.90
48535;DHT22;34323;52.022;5.686;2023-08-30T06:51:41;20.70;99.90
48535;DHT22;34323;52.022;5.686;2023-08-30T06:54:06;20.80;99.90
48535;DHT22;34323;52.022;5.686;2023-08-30T06:56:32;20.80;99.90
48535;DHT22;34323;52.022;5.686;2023-08-30T06:58:57;21.00;99.90
48535;DHT22;34323;52.022;5.686;2023-08-30T07:01:23;21.10;99.90
48535;DHT22;34323;52.022;5.686;2023-08-30T07:03:48;21.00;99.90
48535;DHT22;34323;52.022;5.686;2023-08-30T07:06:14;21.00;99.90
48535;DHT22;34323;52.022;5.686;2023-08-30T07:08:39;21.00;99.90
48535;DHT22;34323;52.022;5.686;2023-08-30T07:11:05;21.00;99.90
48535;DHT22;34323;52.022;5.686;2023-08-30T07:13:31;21.00;99.90
48535;DHT22;34323;52.022;5.686;2023-08-30T07:15:56;20.80;99.90
48535;DHT22;34323;52.022;5.686;2023-08-30T07:18:22;20.70;99.90
48535;DHT22;34323;52.022;5.686;2023-08-30T07:20:47;20.60;99.90
48535;DHT22;34323;52.022;5.686;2023-08-30T07:23:14;20.70;99.90
48535;DHT22;34323;52.022;5.686;2023-08-30T07:25:39;20.60;99.90
48535;DHT22;34323;52.022;5.686;2023-08-30T07:28:05;20.20;99.90
48535;DHT22;34323;52.022;5.686;2023-08-30T07:30:31;20.30;99.90
48535;DHT22;34323;52.022;5.686;2023-08-30T07:32:57;20.40;99.90
48535;DHT22;34323;52.022;5.686;2023-08-30T07:35:22;20.50;99.90
48535;DHT22;34323;52.022;5.686;2023-08-30T07:37:48;20.50;99.90
48535;DHT22;34323;52.022;5.686;2023-08-30T07:40:13;20.40;99.90
48535;DHT22;34323;52.022;5.686;2023-08-30T07:42:39;20.50;99.90
48535;DHT22;34323;52.022;5.686;2023-08-30T07:45:05;20.60;99.90
48535;DHT22;34323;52.022;5.686;2023-08-30T07:47:31;20.50;99.90
48535;DHT22;34323;52.022;5.686;2023-08-30T07:49:57;20.50;99.90
48535;DHT22;34323;52.022;5.686;2023-08-30T07:52:22;20.50;99.90
48535;DHT22;34323;52.022;5.686;2023-08-30T07:54:48;20.50;99.90
48535;DHT22;34323;52.022;5.686;2023-08-30T07:57:13;20.50;99.90
48535;DHT22;34323;52.022;5.686;2023-08-30T07:59:39;20.50;99.90
48535;DHT22;34323;52.022;5.686;2023-08-30T08:02:05;20.40;99.90
48535;DHT22;34323;52.022;5.686;2023-08-30T08:04:34;20.50;99.90
48535;DHT22;34323;52.022;5.686;2023-08-30T08:07:00;20.60;99.90
48535;DHT22;34323;52.022;5.686;2023-08-30T08:09:26;20.70;99.90
48535;DHT22;34323;52.022;5.686;2023-08-30T08:11:53;20.60;99.90
48535;DHT22;34323;52.022;5.686;2023-08-30T08:14:18;20.60;99.90
48535;DHT22;34323;52.022;5.686;2023-08-30T08:16:44;20.60;99.90
48535;DHT22;34323;52.022;5.686;2023-08-30T08:19:09;20.50;99.90
48535;DHT22;34323;52.022;5.686;2023-08-30T08:21:35;20.50;99.90
48535;DHT22;34323;52.022;5.686;2023-08-30T08:24:01;20.60;99.90
48535;DHT22;34323;52.022;5.686;2023-08-30T08:26:27;20.70;99.90
48535;DHT22;34323;52.022;5.686;2023-08-30T08:28:54;20.80;99.90
48535;DHT22;34323;52.022;5.686;2023-08-30T08:31:20;20.90;99.90
48535;DHT22;34323;52.022;5.686;2023-08-30T08:33:45;20.90;99.90
48535;DHT22;34323;52.022;5.686;2023-08-30T08:36:11;20.70;99.90
48535;DHT22;34323;52.022;5.686;2023-08-30T08:38:36;20.80;99.90
48535;DHT22;34323;52.022;5.686;2023-08-30T08:41:11;20.90;99.90
48535;DHT22;34323;52.022;5.686;2023-08-30T08:43:37;21.00;99.90
48535;DHT22;34323;52.022;5.686;2023-08-30T08:46:06;21.00;99.90
48535;DHT22;34323;52.022;5.686;2023-08-30T08:48:36;21.10;99.90
48535;DHT22;34323;52.022;5.686;2023-08-30T08:51:05;21.10;99.90
48535;DHT22;34323;52.022;5.686;2023-08-30T08:53:30;21.00;99.90
48535;DHT22;34323;52.022;5.686;2023-08-30T08:55:58;20.80;99.90
48535;DHT22;34323;52.022;5.686;2023-08-30T08:58:25;20.60;99.90
48535;DHT22;34323;52.022;5.686;2023-08-30T09:00:51;20.60;99.90
48535;DHT22;34323;52.022;5.686;2023-08-30T09:03:18;20.60;99.90
48535;DHT22;34323;52.022;5.686;2023-08-30T09:05:44;20.60;99.90
48535;DHT22;34323;52.022;5.686;2023-08-30T09:08:12;20.50;99.90
48535;DHT22;34323;52.022;5.686;2023-08-30T09:10:41;20.60;99.90
48535;DHT22;34323;52.022;5.686;2023-08-30T09:13:06;20.60;99.90
48535;DHT22;34323;52.022;5.686;2023-08-30T09:15:33;20.60;99.90
48535;DHT22;34323;52.022;5.686;2023-08-30T09:17:59;20.70;99.90
48535;DHT22;34323;52.022;5.686;2023-08-30T09:20:24;20.70;99.90
48535;DHT22;34323;52.022;5.686;2023-08-30T09:22:50;20.70;99.90
48535;DHT22;34323;52.022;5.686;2023-08-30T09:25:23;20.70;99.90
48535;DHT22;34323;52.022;5.686;2023-08-30T09:27:50;20.70;99.90
48535;DHT22;34323;52.022;5.686;2023-08-30T09:30:21;20.60;99.90
48535;DHT22;34323;52.022;5.686;2023-08-30T09:32:47;20.70;99.90
48535;DHT22;34323;52.022;5.686;2023-08-30T09:35:12;20.70;99.90
48535;DHT22;34323;52.022;5.686;2023-08-30T09:37:38;20.70;99.90
48535;DHT22;34323;52.022;5.686;2023-08-30T09:40:05;20.60;99.90
48535;DHT22;34323;52.022;5.686;2023-08-30T09:42:31;20.60;99.90
48535;DHT22;34323;52.022;5.686;2023-08-30T09:44:56;20.60;99.90
48535;DHT22;34323;52.022;5.686;2023-08-30T09:47:24;20.30;99.90
48535;DHT22;34323;52.022;5.686;2023-08-30T09:49:54;20.20;99.90
48535;DHT22;34323;52.022;5.686;2023-08-30T09:52:23;20.30;99.90
48535;DHT22;34323;52.022;5.686;2023-08-30T09:54:49;20.40;99.90
48535;DHT22;34323;52.022;5.686;2023-08-30T09:57:15;20.40;99.90
48535;DHT22;34323;52.022;5.686;2023-08-30T09:59:42;20.40;99.90
48535;DHT22;34323;52.022;5.686;2023-08-30T10:02:08;20.50;99.90
48535;DHT22;34323;52.022;5.686;2023-08-30T10:04:38;20.50;99.90
48535;DHT22;34323;52.022;5.686;2023-08-30T10:07:06;20.50;99.90
48535;DHT22;34323;52.022;5.686;2023-08-30T10:09:33;20.50;99.90
48535;DHT22;34323;52.022;5.686;2023-08-30T10:11:58;20.50;99.90
48535;DHT22;34323;52.022;5.686;2023-08-30T10:14:26;20.40;99.90
48535;DHT22;34323;52.022;5.686;2023-08-30T10:16:59;20.50;99.90
48535;DHT22;34323;52.022;5.686;2023-08-30T10:19:27;20.60;99.90
48535;DHT22;34323;52.022;5.686;2023-08-30T10:24:31;21.20;99.90
48535;DHT22;34323;52.022;5.686;2023-08-30T10:26:59;21.40;99.90
48535;DHT22;34323;52.022;5.686;2023-08-30T10:29:27;21.40;99.90
48535;DHT22;34323;52.022;5.686;2023-08-30T10:31:53;21.60;99.90
48535;DHT22;34323;52.022;5.686;2023-08-30T10:34:19;21.60;99.90
48535;DHT22;34323;52.022;5.686;2023-08-30T10:36:56;21.60;99.90
48535;DHT22;34323;52.022;5.686;2023-08-30T10:39:39;21.80;99.90
48535;DHT22;34323;52.022;5.686;2023-08-30T10:42:15;21.90;99.90
48535;DHT22;34323;52.022;5.686;2023-08-30T10:45:07;21.90;99.90
48535;DHT22;34323;52.022;5.686;2023-08-30T10:47:34;22.10;99.90
48535;DHT22;34323;52.022;5.686;2023-08-30T10:50:11;22.20;99.90
48535;DHT22;34323;52.022;5.686;2023-08-30T10:52:37;22.40;99.90
48535;DHT22;34323;52.022;5.686;2023-08-30T10:55:06;22.40;99.90
48535;DHT22;34323;52.022;5.686;2023-08-30T10:57:33;22.20;99.90
48535;DHT22;34323;52.022;5.686;2023-08-30T11:00:11;22.10;99.90
48535;DHT22;34323;52.022;5.686;2023-08-30T11:02:37;22.40;99.90
48535;DHT22;34323;52.022;5.686;2023-08-30T11:05:08;22.50;99.90
48535;DHT22;34323;52.022;5.686;2023-08-30T11:07:34;22.80;99.90
48535;DHT22;34323;52.022;5.686;2023-08-30T11:09:59;22.80;99.90
48535;DHT22;34323;52.022;5.686;2023-08-30T11:12:25;22.70;99.90
48535;DHT22;34323;52.022;5.686;2023-08-30T11:14:54;22.60;99.90
48535;DHT22;34323;52.022;5.686;2023-08-30T11:17:19;22.80;99.90
48535;DHT22;34323;52.022;5.686;2023-08-30T11:19:45;23.10;99.90
48535;DHT22;34323;52.022;5.686;2023-08-30T11:22:12;23.30;99.90
48535;DHT22;34323;52.022;5.686;2023-08-30T11:24:39;23.60;99.90
48535;DHT22;34323;52.022;5.686;2023-08-30T11:27:05;23.80;99.90
48535;DHT22;34323;52.022;5.686;2023-08-30T11:29:30;23.90;99.90
48535;DHT22;34323;52.022;5.686;2023-08-30T11:31:56;23.90;99.90
48535;DHT22;34323;52.022;5.686;2023-08-30T11:34:21;23.70;99.90
48535;DHT22;34323;52.022;5.686;2023-08-30T11:36:48;23.50;99.90
48535;DHT22;34323;52.022;5.686;2023-08-30T11:39:16;23.60;99.90
48535;DHT22;34323;52.022;5.686;2023-08-30T11:41:42;23.80;99.90
48535;DHT22;34323;52.022;5.686;2023-08-30T11:44:08;24.00;99.90
48535;DHT22;34323;52.022;5.686;2023-08-30T11:46:33;24.20;99.90
48535;DHT22;34323;52.022;5.686;2023-08-30T11:48:59;24.30;99.90
48535;DHT22;34323;52.022;5.686;2023-08-30T11:51:25;24.50;99.90
48535;DHT22;34323;52.022;5.686;2023-08-30T11:53:52;24.70;99.90
48535;DHT22;34323;52.022;5.686;2023-08-30T11:56:18;24.60;99.90
48535;DHT22;34323;52.022;5.686;2023-08-30T11:58:44;24.60;99.90
48535;DHT22;34323;52.022;5.686;2023-08-30T12:01:10;24.50;99.90
48535;DHT22;34323;52.022;5.686;2023-08-30T12:03:36;24.40;99.90
48535;DHT22;34323;52.022;5.686;2023-08-30T12:06:02;24.30;99.90
48535;DHT22;34323;52.022;5.686;2023-08-30T12:08:30;24.30;99.90
48535;DHT22;34323;52.022;5.686;2023-08-30T12:10:56;24.30;99.90
48535;DHT22;34323;52.022;5.686;2023-08-30T12:13:29;24.40;99.90
48535;DHT22;34323;52.022;5.686;2023-08-30T12:15:56;24.60;99.90
48535;DHT22;34323;52.022;5.686;2023-08-30T12:18:27;24.70;99.90
48535;DHT22;34323;52.022;5.686;2023-08-30T12:21:03;24.90;99.90
48535;DHT22;34323;52.022;5.686;2023-08-30T12:23:31;24.90;99.90
48535;DHT22;34323;52.022;5.686;2023-08-30T12:28:24;25.10;99.90
48535;DHT22;34323;52.022;5.686;2023-08-30T12:30:50;25.10;99.90
48535;DHT22;34323;52.022;5.686;2023-08-30T12:33:18;25.00;99.90
48535;DHT22;34323;52.022;5.686;2023-08-30T12:35:44;24.90;99.90
48535;DHT22;34323;52.022;5.686;2023-08-30T12:38:10;24.90;99.90
48535;DHT22;34323;52.022;5.686;2023-08-30T12:40:37;25.00;99.90
48535;DHT22;34323;52.022;5.686;2023-08-30T12:43:04;25.10;99.90
48535;DHT22;34323;52.022;5.686;2023-08-30T12:45:29;25.10;99.90
48535;DHT22;34323;52.022;5.686;2023-08-30T12:47:55;25.40;99.90
48535;DHT22;34323;52.022;5.686;2023-08-30T12:50:24;25.50;99.90
48535;DHT22;34323;52.022;5.686;2023-08-30T12:52:49;25.80;99.90
48535;DHT22;34323;52.022;5.686;2023-08-30T12:55:15;25.70;99.90
48535;DHT22;34323;52.022;5.686;2023-08-30T12:57:41;25.50;99.90
48535;DHT22;34323;52.022;5.686;2023-08-30T13:00:07;25.30;99.90
48535;DHT22;34323;52.022;5.686;2023-08-30T13:02:33;25.30;99.90
48535;DHT22;34323;52.022;5.686;2023-08-30T13:04:58;25.70;99.90
48535;DHT22;34323;52.022;5.686;2023-08-30T13:07:24;25.80;99.90
48535;DHT22;34323;52.022;5.686;2023-08-30T13:09:49;25.90;99.90
48535;DHT22;34323;52.022;5.686;2023-08-30T13:12:15;26.00;99.90
48535;DHT22;34323;52.022;5.686;2023-08-30T13:14:40;26.20;99.90
48535;DHT22;34323;52.022;5.686;2023-08-30T13:17:06;26.30;99.90
48535;DHT22;34323;52.022;5.686;2023-08-30T13:19:32;26.50;99.90
48535;DHT22;34323;52.022;5.686;2023-08-30T13:21:57;26.50;99.90
48535;DHT22;34323;52.022;5.686;2023-08-30T13:24:23;26.40;99.90
48535;DHT22;34323;52.022;5.686;2023-08-30T13:26:48;26.20;99.90
48535;DHT22;34323;52.022;5.686;2023-08-30T13:29:16;26.40;99.90
48535;DHT22;34323;52.022;5.686;2023-08-30T13:31:42;27.00;99.90
48535;DHT22;34323;52.022;5.686;2023-08-30T13:34:07;27.90;99.90
48535;DHT22;34323;52.022;5.686;2023-08-30T13:36:33;29.00;99.90
48535;DHT22;34323;52.022;5.686;2023-08-30T13:38:59;30.00;99.90
48535;DHT22;34323;52.022;5.686;2023-08-30T13:41:24;31.00;99.90
48535;DHT22;34323;52.022;5.686;2023-08-30T13:43:50;32.10;99.90
48535;DHT22;34323;52.022;5.686;2023-08-30T13:46:15;33.10;99.90
48535;DHT22;34323;52.022;5.686;2023-08-30T13:48:41;34.20;99.90
48535;DHT22;34323;52.022;5.686;2023-08-30T13:51:07;35.20;99.90
48535;DHT22;34323;52.022;5.686;2023-08-30T13:53:32;35.60;99.80
48535;DHT22;34323;52.022;5.686;2023-08-30T13:55:58;35.60;99.80
48535;DHT22;34323;52.022;5.686;2023-08-30T13:58:23;35.70;99.90
48535;DHT22;34323;52.022;5.686;2023-08-30T14:00:49;35.10;99.70
48535;DHT22;34323;52.022;5.686;2023-08-30T14:03:14;34.10;99.90
48535;DHT22;34323;52.022;5.686;2023-08-30T14:05:40;33.30;99.90
48535;DHT22;34323;52.022;5.686;2023-08-30T14:08:06;33.00;99.90
48535;DHT22;34323;52.022;5.686;2023-08-30T14:10:32;33.30;99.90
48535;DHT22;34323;52.022;5.686;2023-08-30T14:12:58;33.90;99.90
48535;DHT22;34323;52.022;5.686;2023-08-30T14:15:24;34.40;99.90
48535;DHT22;34323;52.022;5.686;2023-08-30T14:17:49;34.00;99.50
48535;DHT22;34323;52.022;5.686;2023-08-30T14:20:15;33.00;99.40
48535;DHT22;34323;52.022;5.686;2023-08-30T14:22:40;32.80;99.90
48535;DHT22;34323;52.022;5.686;2023-08-30T14:25:06;32.70;99.90
48535;DHT22;34323;52.022;5.686;2023-08-30T14:27:31;32.70;99.90
48535;DHT22;34323;52.022;5.686;2023-08-30T14:29:57;32.90;99.90
48535;DHT22;34323;52.022;5.686;2023-08-30T14:32:23;32.60;99.90
48535;DHT22;34323;52.022;5.686;2023-08-30T14:34:48;31.60;99.90
48535;DHT22;34323;52.022;5.686;2023-08-30T14:37:14;31.20;99.90
48535;DHT22;34323;52.022;5.686;2023-08-30T14:39:39;31.00;99.90
48535;DHT22;34323;52.022;5.686;2023-08-30T14:42:05;31.10;99.90
48535;DHT22;34323;52.022;5.686;2023-08-30T14:44:30;30.80;99.90
48535;DHT22;34323;52.022;5.686;2023-08-30T14:46:56;29.80;99.90
48535;DHT22;34323;52.022;5.686;2023-08-30T14:49:21;29.10;99.90
48535;DHT22;34323;52.022;5.686;2023-08-30T14:51:47;28.80;99.90
48535;DHT22;34323;52.022;5.686;2023-08-30T14:54:12;28.40;99.90
48535;DHT22;34323;52.022;5.686;2023-08-30T14:56:38;28.80;99.90
48535;DHT22;34323;52.022;5.686;2023-08-30T14:59:03;29.90;99.90
48535;DHT22;34323;52.022;5.686;2023-08-30T15:01:29;30.70;99.90
48535;DHT22;34323;52.022;5.686;2023-08-30T15:03:55;31.20;99.90
48535;DHT22;34323;52.022;5.686;2023-08-30T15:06:21;31.20;99.90
48535;DHT22;34323;52.022;5.686;2023-08-30T15:08:47;31.40;99.90
48535;DHT22;34323;52.022;5.686;2023-08-30T15:11:13;31.90;99.90
48535;DHT22;34323;52.022;5.686;2023-08-30T15:13:38;32.20;99.90
48535;DHT22;34323;52.022;5.686;2023-08-30T15:16:04;32.70;99.90
48535;DHT22;34323;52.022;5.686;2023-08-30T15:18:30;32.90;99.90
48535;DHT22;34323;52.022;5.686;2023-08-30T15:20:56;32.30;99.90
48535;DHT22;34323;52.022;5.686;2023-08-30T15:23:22;32.30;99.90
48535;DHT22;34323;52.022;5.686;2023-08-30T15:25:48;32.10;99.90
48535;DHT22;34323;52.022;5.686;2023-08-30T15:28:14;31.90;99.90
48535;DHT22;34323;52.022;5.686;2023-08-30T15:30:44;31.50;99.90
48535;DHT22;34323;52.022;5.686;2023-08-30T15:33:10;30.90;99.90